createdAt,value
2019-02-12T00:00:58.219Z,1016.33
2019-02-12T00:01:58.197Z,1016.37
2019-02-12T00:02:58.182Z,1016.31
2019-02-12T00:03:58.174Z,1016.34
2019-02-12T00:04:58.162Z,1016.33
2019-02-12T00:05:58.165Z,1016.43
2019-02-12T00:06:58.156Z,1016.36
2019-02-12T00:07:58.128Z,1016.34
2019-02-12T00:08:58.120Z,1016.43
2019-02-12T00:09:58.114Z,1016.32
2019-02-12T00:10:58.121Z,1016.43
2019-02-12T00:11:58.086Z,1016.40
2019-02-12T00:12:58.086Z,1016.39
2019-02-12T00:13:58.068Z,1016.40
2019-02-12T00:14:58.058Z,1016.33
2019-02-12T00:15:58.079Z,1016.37
2019-02-12T00:16:58.039Z,1016.34
2019-02-12T00:17:58.033Z,1016.39
2019-02-12T00:18:58.025Z,1016.39
2019-02-12T00:19:58.008Z,1016.46
2019-02-12T00:20:57.995Z,1016.50
2019-02-12T00:21:58.004Z,1016.39
2019-02-12T00:22:57.976Z,1016.42
2019-02-12T00:23:57.963Z,1016.41
2019-02-12T00:24:57.952Z,1016.44
2019-02-12T00:25:57.946Z,1016.40
2019-02-12T00:26:57.953Z,1016.40
2019-02-12T00:27:57.942Z,1016.39
2019-02-12T00:28:57.918Z,1016.35
2019-02-12T00:29:57.900Z,1016.38
2019-02-12T00:30:57.892Z,1016.42
2019-02-12T00:31:57.909Z,1016.41
2019-02-12T00:32:57.877Z,1016.39
2019-02-12T00:33:57.858Z,1016.40
2019-02-12T00:34:57.853Z,1016.44
2019-02-12T00:35:57.850Z,1016.43
2019-02-12T00:36:57.827Z,1016.47
2019-02-12T00:37:57.833Z,1016.51
2019-02-12T00:38:57.808Z,1016.60
2019-02-12T00:39:57.813Z,1016.68
2019-02-12T00:40:57.786Z,1016.59
2019-02-12T00:41:57.775Z,1016.58
2019-02-12T00:42:57.789Z,1016.59
2019-02-12T00:43:57.760Z,1016.65
2019-02-12T00:44:57.745Z,1016.73
2019-02-12T00:45:57.731Z,1016.66
2019-02-12T00:46:57.724Z,1016.75
2019-02-12T00:47:57.718Z,1016.68
2019-02-12T00:48:57.717Z,1016.62
2019-02-12T00:49:57.701Z,1016.64
2019-02-12T00:50:57.681Z,1016.62
2019-02-12T00:51:57.669Z,1016.59
2019-02-12T00:52:57.660Z,1016.60
2019-02-12T00:53:57.666Z,1016.62
2019-02-12T00:54:57.639Z,1016.62
2019-02-12T00:55:57.626Z,1016.69
2019-02-12T00:56:57.617Z,1016.60
2019-02-12T00:57:57.610Z,1016.60
2019-02-12T00:58:57.609Z,1016.65
2019-02-12T00:59:57.586Z,1016.57
2019-02-12T01:00:57.575Z,1016.55
2019-02-12T01:01:57.564Z,1016.64
2019-02-12T01:02:57.555Z,1016.61
2019-02-12T01:03:57.561Z,1016.59
2019-02-12T01:04:57.531Z,1016.54
2019-02-12T01:05:57.521Z,1016.65
2019-02-12T01:06:57.513Z,1016.62
2019-02-12T01:07:57.504Z,1016.56
2019-02-12T01:08:57.524Z,1016.64
2019-02-12T01:09:57.481Z,1016.56
2019-02-12T01:10:57.471Z,1016.56
2019-02-12T01:11:57.463Z,1016.54
2019-02-12T01:12:57.447Z,1016.56
2019-02-12T01:13:57.440Z,1016.53
2019-02-12T01:14:57.446Z,1016.59
2019-02-12T01:15:57.417Z,1016.58
2019-02-12T01:16:57.409Z,1016.59
2019-02-12T01:17:57.397Z,1016.71
2019-02-12T01:18:57.393Z,1016.70
2019-02-12T01:19:57.424Z,1016.63
2019-02-12T01:20:57.374Z,1016.65
2019-02-12T01:21:57.358Z,1016.73
2019-02-12T01:22:57.343Z,1016.69
2019-02-12T01:23:57.341Z,1016.74
2019-02-12T01:24:57.333Z,1016.74
2019-02-12T01:25:57.317Z,1016.82
2019-02-12T01:26:57.303Z,1016.83
2019-02-12T01:27:57.297Z,1016.78
2019-02-12T01:28:57.283Z,1016.82
2019-02-12T01:29:57.309Z,1016.76
2019-02-12T01:30:57.259Z,1016.76
2019-02-12T01:31:57.251Z,1016.88
2019-02-12T01:32:57.238Z,1016.77
2019-02-12T01:33:57.231Z,1016.84
2019-02-12T01:34:57.225Z,1016.77
2019-02-12T01:35:57.226Z,1016.85
2019-02-12T01:36:57.193Z,1016.92
2019-02-12T01:37:57.185Z,1016.88
2019-02-12T01:38:57.177Z,1016.94
2019-02-12T01:39:57.168Z,1016.96
2019-02-12T01:40:57.170Z,1017.01
2019-02-12T01:41:57.143Z,1016.94
2019-02-12T01:42:57.133Z,1016.93
2019-02-12T01:43:57.119Z,1016.85
2019-02-12T01:44:57.117Z,1016.91
2019-02-12T01:45:57.120Z,1016.97
2019-02-12T01:46:57.095Z,1016.96
2019-02-12T01:47:57.083Z,1016.97
2019-02-12T01:48:57.067Z,1017.05
2019-02-12T01:49:57.060Z,1016.93
2019-02-12T01:50:57.068Z,1016.99
2019-02-12T01:51:57.039Z,1017.06
2019-02-12T01:52:57.026Z,1017.05
2019-02-12T01:53:57.020Z,1017.05
2019-02-12T01:54:57.014Z,1017.08
2019-02-12T01:55:57.024Z,1016.99
2019-02-12T01:56:56.984Z,1017.01
2019-02-12T01:57:56.977Z,1017.02
2019-02-12T01:58:56.967Z,1017.11
2019-02-12T01:59:56.955Z,1017.23
2019-02-12T02:00:56.957Z,1017.10
2019-02-12T02:01:56.931Z,1017.20
2019-02-12T02:02:56.928Z,1017.22
2019-02-12T02:03:56.921Z,1017.22
2019-02-12T02:04:56.903Z,1017.28
2019-02-12T02:05:56.922Z,1017.16
2019-02-12T02:06:56.881Z,1017.21
2019-02-12T02:07:56.868Z,1017.18
2019-02-12T02:08:56.855Z,1017.23
2019-02-12T02:09:56.851Z,1017.25
2019-02-12T02:10:56.837Z,1017.17
2019-02-12T02:11:56.842Z,1017.16
2019-02-12T02:12:56.821Z,1017.28
2019-02-12T02:13:56.812Z,1017.30
2019-02-12T02:14:56.797Z,1017.23
2019-02-12T02:15:56.791Z,1017.26
2019-02-12T02:16:56.793Z,1017.30
2019-02-12T02:17:56.766Z,1017.24
2019-02-12T02:18:56.758Z,1017.20
2019-02-12T02:19:56.749Z,1017.20
2019-02-12T02:20:56.734Z,1017.28
2019-02-12T02:21:56.741Z,1017.22
2019-02-12T02:22:56.711Z,1017.21
2019-02-12T02:23:56.702Z,1017.26
2019-02-12T02:24:56.700Z,1017.25
2019-02-12T02:25:56.682Z,1017.31
2019-02-12T02:26:56.710Z,1017.35
2019-02-12T02:27:56.661Z,1017.37
2019-02-12T02:28:56.655Z,1017.38
2019-02-12T02:29:56.635Z,1017.34
2019-02-12T02:30:56.629Z,1017.40
2019-02-12T02:31:56.634Z,1017.50
2019-02-12T02:32:56.615Z,1017.45
2019-02-12T02:33:56.605Z,1017.33
2019-02-12T02:34:56.584Z,1017.52
2019-02-12T02:35:56.580Z,1017.54
2019-02-12T02:36:56.607Z,1017.46
2019-02-12T02:37:56.552Z,1017.41
2019-02-12T02:38:56.547Z,1017.41
2019-02-12T02:39:56.532Z,1017.43
2019-02-12T02:40:56.527Z,1017.40
2019-02-12T02:41:56.519Z,1017.43
2019-02-12T02:42:56.520Z,1017.40
2019-02-12T02:43:56.499Z,1017.40
2019-02-12T02:44:56.490Z,1017.30
2019-02-12T02:45:56.472Z,1017.35
2019-02-12T02:46:56.460Z,1017.33
2019-02-12T02:47:56.463Z,1017.47
2019-02-12T02:48:56.442Z,1017.51
2019-02-12T02:49:56.424Z,1017.48
2019-02-12T02:50:56.422Z,1017.47
2019-02-12T02:51:56.419Z,1017.45
2019-02-12T02:52:56.415Z,1017.49
2019-02-12T02:53:56.396Z,1017.52
2019-02-12T02:54:56.378Z,1017.53
2019-02-12T02:55:56.364Z,1017.57
2019-02-12T02:56:56.357Z,1017.61
2019-02-12T02:57:56.365Z,1017.56
2019-02-12T02:58:56.377Z,1017.50
2019-02-12T02:59:56.335Z,1017.55
2019-02-12T03:00:56.320Z,1017.62
2019-02-12T03:01:56.307Z,1017.73
2019-02-12T03:02:56.312Z,1017.61
2019-02-12T03:03:56.294Z,1017.60
2019-02-12T03:04:56.273Z,1017.60
2019-02-12T03:05:56.271Z,1017.59
2019-02-12T03:06:56.253Z,1017.64
2019-02-12T03:07:56.270Z,1017.68
2019-02-12T03:08:56.265Z,1017.65
2019-02-12T03:09:56.227Z,1017.65
2019-02-12T03:10:56.210Z,1017.68
2019-02-12T03:11:56.196Z,1017.65
2019-02-12T03:12:56.204Z,1017.77
2019-02-12T03:13:56.177Z,1017.73
2019-02-12T03:14:56.165Z,1017.79
2019-02-12T03:15:56.155Z,1017.77
2019-02-12T03:16:56.162Z,1017.86
2019-02-12T03:17:56.164Z,1017.85
2019-02-12T03:18:56.139Z,1017.83
2019-02-12T03:19:56.117Z,1017.84
2019-02-12T03:20:56.105Z,1017.89
2019-02-12T03:22:03.474Z,1017.92
2019-02-12T03:22:57.102Z,1017.98
2019-02-12T03:23:56.077Z,1017.99
2019-02-12T03:24:56.062Z,1017.98
2019-02-12T03:25:56.050Z,1017.95
2019-02-12T03:26:56.044Z,1017.99
2019-02-12T03:27:56.073Z,1018.01
2019-02-12T03:28:56.019Z,1018.07
2019-02-12T03:29:56.011Z,1018.11
2019-02-12T03:30:56.009Z,1018.15
2019-02-12T03:31:55.989Z,1018.14
2019-02-12T03:32:55.975Z,1018.15
2019-02-12T03:33:55.988Z,1018.18
2019-02-12T03:34:55.960Z,1018.16
2019-02-12T03:35:55.949Z,1018.18
2019-02-12T03:36:55.935Z,1018.19
2019-02-12T03:37:55.924Z,1018.21
2019-02-12T03:38:55.929Z,1018.15
2019-02-12T03:39:55.911Z,1018.23
2019-02-12T03:40:55.895Z,1018.22
2019-02-12T03:41:55.880Z,1018.18
2019-02-12T03:42:55.877Z,1018.23
2019-02-12T03:43:55.912Z,1018.21
2019-02-12T03:44:55.851Z,1018.21
2019-02-12T03:45:55.848Z,1018.27
2019-02-12T03:46:55.833Z,1018.23
2019-02-12T03:47:55.825Z,1018.24
2019-02-12T03:48:55.809Z,1018.27
2019-02-12T03:49:55.822Z,1018.17
2019-02-12T03:50:55.787Z,1018.28
2019-02-12T03:51:55.778Z,1018.20
2019-02-12T03:52:55.763Z,1018.27
2019-02-12T03:53:55.751Z,1018.24
2019-02-12T03:54:55.762Z,1018.20
2019-02-12T03:55:55.735Z,1018.31
2019-02-12T03:56:55.731Z,1018.22
2019-02-12T03:57:55.714Z,1018.30
2019-02-12T03:58:55.708Z,1018.34
2019-02-12T03:59:55.705Z,1018.37
2019-02-12T04:00:55.680Z,1018.34
2019-02-12T04:01:55.675Z,1018.32
2019-02-12T04:02:55.658Z,1018.33
2019-02-12T04:03:55.650Z,1018.29
2019-02-12T04:04:55.661Z,1018.36
2019-02-12T04:05:55.629Z,1018.33
2019-02-12T04:06:55.624Z,1018.32
2019-02-12T04:07:55.612Z,1018.35
2019-02-12T04:08:55.611Z,1018.32
2019-02-12T04:09:55.605Z,1018.33
2019-02-12T04:10:55.576Z,1018.29
2019-02-12T04:11:55.566Z,1018.39
2019-02-12T04:12:55.557Z,1018.32
2019-02-12T04:13:55.549Z,1018.35
2019-02-12T04:14:55.549Z,1018.31
2019-02-12T04:15:55.525Z,1018.30
2019-02-12T04:16:55.515Z,1018.32
2019-02-12T04:17:55.511Z,1018.26
2019-02-12T04:18:55.498Z,1018.32
2019-02-12T04:19:55.505Z,1018.32
2019-02-12T04:20:55.478Z,1018.30
2019-02-12T04:21:55.461Z,1018.23
2019-02-12T04:22:55.450Z,1018.26
2019-02-12T04:23:55.439Z,1018.25
2019-02-12T04:24:55.445Z,1018.25
2019-02-12T04:25:55.420Z,1018.27
2019-02-12T04:26:55.408Z,1018.31
2019-02-12T04:27:55.684Z,1018.31
2019-02-12T04:28:55.384Z,1018.31
2019-02-12T04:29:55.401Z,1018.24
2019-02-12T04:30:55.367Z,1018.23
2019-02-12T04:31:55.405Z,1018.15
2019-02-12T04:32:55.349Z,1018.22
2019-02-12T04:33:55.336Z,1018.23
2019-02-12T04:34:55.347Z,1018.22
2019-02-12T04:35:55.314Z,1018.20
2019-02-12T04:36:55.302Z,1018.21
2019-02-12T04:37:55.293Z,1018.30
2019-02-12T04:38:55.283Z,1018.21
2019-02-12T04:39:55.292Z,1018.20
2019-02-12T04:40:55.259Z,1018.27
2019-02-12T04:41:55.252Z,1018.30
2019-02-12T04:42:55.246Z,1018.33
2019-02-12T04:43:55.230Z,1018.43
2019-02-12T04:44:55.237Z,1018.41
2019-02-12T04:45:55.209Z,1018.51
2019-02-12T04:46:55.206Z,1018.53
2019-02-12T04:47:55.189Z,1018.51
2019-02-12T04:48:55.183Z,1018.55
2019-02-12T04:49:55.216Z,1018.52
2019-02-12T04:50:55.162Z,1018.55
2019-02-12T04:51:55.158Z,1018.46
2019-02-12T04:52:55.139Z,1018.48
2019-02-12T04:53:55.124Z,1018.53
2019-02-12T04:54:55.141Z,1018.55
2019-02-12T04:55:55.110Z,1018.46
2019-02-12T04:56:55.094Z,1018.42
2019-02-12T04:57:55.088Z,1018.43
2019-02-12T04:58:55.075Z,1018.43
2019-02-12T04:59:55.074Z,1018.46
2019-02-12T05:00:55.080Z,1018.45
2019-02-12T05:01:55.042Z,1018.45
2019-02-12T05:02:55.040Z,1018.58
2019-02-12T05:03:55.021Z,1018.52
2019-02-12T05:04:55.013Z,1018.60
2019-02-12T05:05:55.017Z,1018.56
2019-02-12T05:06:54.992Z,1018.57
2019-02-12T05:07:54.979Z,1018.49
2019-02-12T05:08:54.970Z,1018.51
2019-02-12T05:09:54.961Z,1018.48
2019-02-12T05:10:54.962Z,1018.53
2019-02-12T05:11:54.952Z,1018.48
2019-02-12T05:12:54.927Z,1018.53
2019-02-12T05:13:54.925Z,1018.59
2019-02-12T05:14:54.902Z,1018.61
2019-02-12T05:15:54.909Z,1018.59
2019-02-12T05:16:54.884Z,1018.60
2019-02-12T05:17:54.872Z,1018.61
2019-02-12T05:18:55.964Z,1018.59
2019-02-12T05:19:54.856Z,1018.69
2019-02-12T05:20:54.871Z,1018.63
2019-02-12T05:21:54.829Z,1018.71
2019-02-12T05:22:54.827Z,1018.59
2019-02-12T05:23:54.816Z,1018.65
2019-02-12T05:24:54.803Z,1018.67
2019-02-12T05:25:54.794Z,1018.66
2019-02-12T05:26:54.796Z,1018.65
2019-02-12T05:27:54.769Z,1018.55
2019-02-12T05:28:54.761Z,1018.52
2019-02-12T05:29:54.757Z,1018.50
2019-02-12T05:30:54.761Z,1018.58
2019-02-12T05:31:54.749Z,1018.52
2019-02-12T05:32:54.747Z,1018.49
2019-02-12T05:33:54.718Z,1018.54
2019-02-12T05:34:55.849Z,1018.55
2019-02-12T05:35:54.688Z,1018.51
2019-02-12T05:36:54.692Z,1018.51
2019-02-12T05:37:54.673Z,1018.47
2019-02-12T05:38:54.659Z,1018.50
2019-02-12T05:39:54.649Z,1018.54
2019-02-12T05:40:54.638Z,1018.59
2019-02-12T05:41:54.639Z,1018.61
2019-02-12T05:42:54.622Z,1018.62
2019-02-12T05:43:54.607Z,1018.68
2019-02-12T05:44:54.601Z,1018.62
2019-02-12T05:45:54.589Z,1018.66
2019-02-12T05:46:54.596Z,1018.55
2019-02-12T05:47:54.566Z,1018.54
2019-02-12T05:48:54.564Z,1018.56
2019-02-12T05:49:54.552Z,1018.60
2019-02-12T05:50:54.538Z,1018.62
2019-02-12T05:51:54.547Z,1018.66
2019-02-12T05:52:55.213Z,1018.74
2019-02-12T05:53:54.510Z,1018.77
2019-02-12T05:54:54.513Z,1018.75
2019-02-12T05:55:54.490Z,1018.69
2019-02-12T05:56:54.499Z,1018.65
2019-02-12T05:57:54.463Z,1018.67
2019-02-12T05:58:54.456Z,1018.72
2019-02-12T05:59:54.446Z,1018.63
2019-02-12T06:00:54.442Z,1018.77
2019-02-12T06:01:54.442Z,1018.73
2019-02-12T06:02:54.416Z,1018.77
2019-02-12T06:03:54.406Z,1018.81
2019-02-12T06:04:54.392Z,1018.89
2019-02-12T06:05:54.388Z,1018.86
2019-02-12T06:06:54.407Z,1018.92
2019-02-12T06:07:54.370Z,1019.01
2019-02-12T06:08:54.357Z,1018.99
2019-02-12T06:09:54.337Z,1019.03
2019-02-12T06:10:54.332Z,1019.15
2019-02-12T06:11:54.321Z,1019.14
2019-02-12T06:12:54.349Z,1019.23
2019-02-12T06:13:54.302Z,1019.31
2019-02-12T06:14:54.288Z,1019.31
2019-02-12T06:15:54.285Z,1019.27
2019-02-12T06:16:54.267Z,1019.32
2019-02-12T06:17:54.280Z,1019.35
2019-02-12T06:18:54.254Z,1019.42
2019-02-12T06:19:54.233Z,1019.45
2019-02-12T06:20:54.229Z,1019.45
2019-02-12T06:21:54.213Z,1019.46
2019-02-12T06:23:02.990Z,1019.49
2019-02-12T06:23:55.266Z,1019.55
2019-02-12T06:24:54.186Z,1019.50
2019-02-12T06:25:54.176Z,1019.55
2019-02-12T06:26:54.164Z,1019.54
2019-02-12T06:27:54.179Z,1019.60
2019-02-12T06:28:54.142Z,1019.63
2019-02-12T06:29:54.135Z,1019.62
2019-02-12T06:30:54.124Z,1019.65
2019-02-12T06:31:54.112Z,1019.62
2019-02-12T06:32:54.117Z,1019.66
2019-02-12T06:33:54.088Z,1019.66
2019-02-12T06:34:54.083Z,1019.72
2019-02-12T06:35:54.076Z,1019.77
2019-02-12T06:36:54.063Z,1019.78
2019-02-12T06:37:54.064Z,1019.78
2019-02-12T06:38:54.037Z,1019.82
2019-02-12T06:39:54.026Z,1019.89
2019-02-12T06:40:54.018Z,1019.91
2019-02-12T06:41:54.009Z,1019.87
2019-02-12T06:42:54.018Z,1019.89
2019-02-12T06:43:53.985Z,1019.93
2019-02-12T06:44:53.977Z,1020.00
2019-02-12T06:45:53.988Z,1019.96
2019-02-12T06:46:53.958Z,1019.95
2019-02-12T06:47:53.975Z,1019.96
2019-02-12T06:48:53.935Z,1020.00
2019-02-12T06:49:53.923Z,1020.01
2019-02-12T06:50:53.919Z,1020.07
2019-02-12T06:51:53.901Z,1020.09
2019-02-12T06:52:53.889Z,1020.07
2019-02-12T06:53:53.898Z,1020.04
2019-02-12T06:54:53.871Z,1020.03
2019-02-12T06:55:53.863Z,1019.96
2019-02-12T06:56:53.848Z,1019.94
2019-02-12T06:57:53.851Z,1020.00
2019-02-12T06:58:53.849Z,1019.95
2019-02-12T06:59:53.831Z,1019.98
2019-02-12T07:00:53.811Z,1019.99
2019-02-12T07:01:53.794Z,1019.98
2019-02-12T07:02:53.789Z,1020.03
2019-02-12T07:03:53.791Z,1019.98
2019-02-12T07:04:53.768Z,1020.05
2019-02-12T07:05:53.755Z,1020.03
2019-02-12T07:06:53.742Z,1020.12
2019-02-12T07:07:53.739Z,1020.11
2019-02-12T07:08:53.746Z,1020.15
2019-02-12T07:09:53.714Z,1020.19
2019-02-12T07:10:53.705Z,1020.22
2019-02-12T07:11:53.690Z,1020.30
2019-02-12T07:12:53.685Z,1020.25
2019-02-12T07:13:53.689Z,1020.39
2019-02-12T07:14:53.661Z,1020.41
2019-02-12T07:15:53.655Z,1020.44
2019-02-12T07:16:53.644Z,1020.44
2019-02-12T07:17:53.639Z,1020.52
2019-02-12T07:18:54.595Z,1020.52
2019-02-12T07:19:53.612Z,1020.53
2019-02-12T07:20:53.602Z,1020.53
2019-02-12T07:21:53.588Z,1020.49
2019-02-12T07:22:53.583Z,1020.53
2019-02-12T07:23:53.590Z,1020.56
2019-02-12T07:24:53.560Z,1020.60
2019-02-12T07:25:55.128Z,1020.57
2019-02-12T07:26:53.563Z,1020.55
2019-02-12T07:27:53.527Z,1020.58
2019-02-12T07:28:53.518Z,1020.56
2019-02-12T07:29:53.522Z,1020.62
2019-02-12T07:30:53.494Z,1020.65
2019-02-12T07:31:53.488Z,1020.57
2019-02-12T07:32:53.483Z,1020.61
2019-02-12T07:33:53.471Z,1020.66
2019-02-12T07:34:53.468Z,1020.68
2019-02-12T07:35:53.445Z,1020.71
2019-02-12T07:36:53.436Z,1020.69
2019-02-12T07:37:53.435Z,1020.73
2019-02-12T07:38:53.424Z,1020.72
2019-02-12T07:39:53.419Z,1020.82
2019-02-12T07:40:53.396Z,1020.86
2019-02-12T07:41:53.390Z,1020.87
2019-02-12T07:42:53.399Z,1020.89
2019-02-12T07:43:53.363Z,1020.86
2019-02-12T07:44:53.371Z,1020.92
2019-02-12T07:45:53.342Z,1020.93
2019-02-12T07:46:53.327Z,1020.96
2019-02-12T07:47:53.322Z,1020.98
2019-02-12T07:48:53.311Z,1020.97
2019-02-12T07:49:53.309Z,1020.94
2019-02-12T07:50:53.291Z,1020.95
2019-02-12T07:51:53.274Z,1021.00
2019-02-12T07:52:53.265Z,1020.98
2019-02-12T07:53:53.262Z,1021.00
2019-02-12T07:54:53.264Z,1020.96
2019-02-12T07:55:53.239Z,1021.06
2019-02-12T07:56:53.227Z,1021.09
2019-02-12T07:57:53.223Z,1021.07
2019-02-12T07:58:53.215Z,1021.07
2019-02-12T07:59:53.214Z,1021.11
2019-02-12T08:00:53.184Z,1021.12
2019-02-12T08:01:53.183Z,1021.17
2019-02-12T08:02:53.170Z,1021.10
2019-02-12T08:03:53.152Z,1021.16
2019-02-12T08:04:53.262Z,1021.21
2019-02-12T08:05:53.130Z,1021.15
2019-02-12T08:06:53.125Z,1021.15
2019-02-12T08:07:53.126Z,1021.18
2019-02-12T08:08:53.105Z,1021.17
2019-02-12T08:09:53.088Z,1021.17
2019-02-12T08:10:53.095Z,1021.20
2019-02-12T08:11:53.079Z,1021.22
2019-02-12T08:12:53.060Z,1021.21
2019-02-12T08:13:53.055Z,1021.17
2019-02-12T08:14:53.047Z,1021.23
2019-02-12T08:15:53.044Z,1021.23
2019-02-12T08:16:53.016Z,1021.24
2019-02-12T08:17:53.014Z,1021.24
2019-02-12T08:18:52.999Z,1021.23
2019-02-12T08:19:52.990Z,1021.25
2019-02-12T08:20:52.999Z,1021.24
2019-02-12T08:21:52.965Z,1021.29
2019-02-12T08:22:52.961Z,1021.27
2019-02-12T08:23:52.959Z,1021.31
2019-02-12T08:24:52.936Z,1021.34
2019-02-12T08:25:52.924Z,1021.39
2019-02-12T08:26:52.931Z,1021.34
2019-02-12T08:27:52.911Z,1021.41
2019-02-12T08:28:52.893Z,1021.42
2019-02-12T08:29:52.884Z,1021.44
2019-02-12T08:30:52.868Z,1021.40
2019-02-12T08:31:52.880Z,1021.49
2019-02-12T08:32:52.853Z,1021.49
2019-02-12T08:33:52.838Z,1021.40
2019-02-12T08:34:52.831Z,1021.40
2019-02-12T08:35:57.300Z,1021.41
2019-02-12T08:36:52.829Z,1021.42
2019-02-12T08:37:52.800Z,1021.41
2019-02-12T08:38:52.789Z,1021.40
2019-02-12T08:39:55.320Z,1021.46
2019-02-12T08:40:52.775Z,1021.50
2019-02-12T08:41:52.783Z,1021.43
2019-02-12T08:42:52.751Z,1021.44
2019-02-12T08:43:52.745Z,1021.51
2019-02-12T08:44:52.736Z,1021.49
2019-02-12T08:45:52.718Z,1021.49
2019-02-12T08:46:53.215Z,1021.51
2019-02-12T08:47:52.706Z,1021.52
2019-02-12T08:48:52.694Z,1021.49
2019-02-12T08:49:52.677Z,1021.54
2019-02-12T08:50:52.666Z,1021.62
2019-02-12T08:51:52.657Z,1021.63
2019-02-12T08:52:52.656Z,1021.64
2019-02-12T08:53:52.636Z,1021.67
2019-02-12T08:54:52.621Z,1021.70
2019-02-12T08:55:52.609Z,1021.81
2019-02-12T08:56:52.618Z,1021.72
2019-02-12T08:57:52.611Z,1021.75
2019-02-12T08:58:52.577Z,1021.75
2019-02-12T08:59:52.576Z,1021.76
2019-02-12T09:00:52.562Z,1021.73
2019-02-12T09:01:52.559Z,1021.86
2019-02-12T09:02:52.558Z,1021.84
2019-02-12T09:03:52.530Z,1021.83
2019-02-12T09:04:52.522Z,1021.83
2019-02-12T09:05:52.507Z,1021.84
2019-02-12T09:06:52.505Z,1021.91
2019-02-12T09:07:52.501Z,1021.88
2019-02-12T09:08:52.485Z,1021.94
2019-02-12T09:09:52.468Z,1021.91
2019-02-12T09:10:52.460Z,1021.92
2019-02-12T09:11:52.445Z,1021.89
2019-02-12T09:12:52.449Z,1021.91
2019-02-12T09:13:52.425Z,1021.95
2019-02-12T09:14:52.427Z,1022.02
2019-02-12T09:15:52.403Z,1021.94
2019-02-12T09:16:52.398Z,1022.01
2019-02-12T09:17:52.406Z,1022.02
2019-02-12T09:18:52.381Z,1021.98
2019-02-12T09:19:52.370Z,1021.95
2019-02-12T09:20:52.371Z,1022.00
2019-02-12T09:21:52.345Z,1021.98
2019-02-12T09:22:52.333Z,1022.05
2019-02-12T09:23:59.868Z,1022.07
2019-02-12T09:24:53.314Z,1022.08
2019-02-12T09:25:52.298Z,1022.07
2019-02-12T09:26:52.293Z,1022.06
2019-02-12T09:27:52.283Z,1022.09
2019-02-12T09:28:52.281Z,1022.19
2019-02-12T09:29:52.257Z,1022.18
2019-02-12T09:30:52.247Z,1022.11
2019-02-12T09:31:52.234Z,1022.15
2019-02-12T09:32:52.229Z,1022.19
2019-02-12T09:33:52.227Z,1022.23
2019-02-12T09:34:52.204Z,1022.24
2019-02-12T09:35:52.208Z,1022.27
2019-02-12T09:36:52.189Z,1022.22
2019-02-12T09:37:52.175Z,1022.20
2019-02-12T09:38:52.183Z,1022.34
2019-02-12T09:39:52.303Z,1022.28
2019-02-12T09:40:52.143Z,1022.32
2019-02-12T09:41:52.136Z,1022.31
2019-02-12T09:42:52.122Z,1022.35
2019-02-12T09:43:52.134Z,1022.45
2019-02-12T09:44:52.105Z,1022.46
2019-02-12T09:45:52.090Z,1022.41
2019-02-12T09:46:52.084Z,1022.51
2019-02-12T09:47:52.070Z,1022.58
2019-02-12T09:48:52.076Z,1022.54
2019-02-12T09:49:52.065Z,1022.57
2019-02-12T09:50:52.039Z,1022.57
2019-02-12T09:51:52.027Z,1022.61
2019-02-12T09:52:52.015Z,1022.55
2019-02-12T09:53:52.002Z,1022.60
2019-02-12T09:54:54.092Z,1022.60
2019-02-12T09:55:51.986Z,1022.52
2019-02-12T09:56:51.977Z,1022.58
2019-02-12T09:57:51.964Z,1022.53
2019-02-12T09:58:51.950Z,1022.61
2019-02-12T09:59:51.957Z,1022.56
2019-02-12T10:00:51.948Z,1022.61
2019-02-12T10:01:51.925Z,1022.70
2019-02-12T10:02:51.916Z,1022.69
2019-02-12T10:03:51.902Z,1022.80
2019-02-12T10:04:51.903Z,1022.75
2019-02-12T10:05:51.886Z,1022.80
2019-02-12T10:06:51.871Z,1022.76
2019-02-12T10:07:51.909Z,1022.89
2019-02-12T10:08:51.848Z,1022.83
2019-02-12T10:09:51.869Z,1022.80
2019-02-12T10:10:51.830Z,1022.80
2019-02-12T10:11:51.813Z,1022.86
2019-02-12T10:12:51.805Z,1022.80
2019-02-12T10:13:51.793Z,1022.82
2019-02-12T10:14:51.818Z,1022.87
2019-02-12T10:15:51.773Z,1022.79
2019-02-12T10:16:51.769Z,1022.91
2019-02-12T10:17:51.758Z,1022.86
2019-02-12T10:18:51.753Z,1022.94
2019-02-12T10:19:51.734Z,1022.87
2019-02-12T10:20:51.734Z,1022.87
2019-02-12T10:21:51.769Z,1022.89
2019-02-12T10:22:51.710Z,1022.93
2019-02-12T10:23:51.704Z,1022.90
2019-02-12T10:24:51.687Z,1022.83
2019-02-12T10:25:51.689Z,1022.93
2019-02-12T10:26:51.659Z,1022.89
2019-02-12T10:27:51.694Z,1022.90
2019-02-12T10:28:51.639Z,1022.95
2019-02-12T10:29:51.628Z,1022.97
2019-02-12T10:30:51.633Z,1023.02
2019-02-12T10:31:51.611Z,1022.99
2019-02-12T10:32:51.605Z,1022.99
2019-02-12T10:33:51.586Z,1023.03
2019-02-12T10:34:51.575Z,1023.04
2019-02-12T10:35:51.592Z,1023.04
2019-02-12T10:36:51.564Z,1022.96
2019-02-12T10:37:51.565Z,1023.05
2019-02-12T10:38:51.545Z,1023.08
2019-02-12T10:39:51.526Z,1023.06
2019-02-12T10:40:51.522Z,1022.99
2019-02-12T10:41:51.524Z,1022.98
2019-02-12T10:42:51.492Z,1022.98
2019-02-12T10:43:51.483Z,1023.01
2019-02-12T10:44:51.468Z,1022.99
2019-02-12T10:45:51.463Z,1023.02
2019-02-12T10:46:51.468Z,1022.97
2019-02-12T10:47:51.440Z,1022.93
2019-02-12T10:48:52.735Z,1022.94
2019-02-12T10:49:51.416Z,1022.94
2019-02-12T10:50:51.412Z,1022.94
2019-02-12T10:51:51.437Z,1022.92
2019-02-12T10:52:51.397Z,1023.00
2019-02-12T10:53:51.380Z,1022.92
2019-02-12T10:54:51.371Z,1022.88
2019-02-12T10:55:51.371Z,1022.96
2019-02-12T10:56:51.363Z,1022.98
2019-02-12T10:57:51.345Z,1023.04
2019-02-12T10:58:51.317Z,1022.97
2019-02-12T10:59:51.314Z,1022.96
2019-02-12T11:00:51.308Z,1023.00
2019-02-12T11:01:51.319Z,1023.02
2019-02-12T11:02:51.284Z,1023.03
2019-02-12T11:03:51.271Z,1023.02
2019-02-12T11:04:51.261Z,1023.04
2019-02-12T11:05:51.251Z,1022.98
2019-02-12T11:06:51.240Z,1023.05
2019-02-12T11:07:51.242Z,1023.02
2019-02-12T11:08:51.221Z,1023.04
2019-02-12T11:09:51.206Z,1023.05
2019-02-12T11:10:51.195Z,1023.11
2019-02-12T11:11:51.188Z,1023.07
2019-02-12T11:12:51.199Z,1023.04
2019-02-12T11:13:51.168Z,1023.08
2019-02-12T11:14:51.159Z,1023.12
2019-02-12T11:15:51.147Z,1023.11
2019-02-12T11:16:51.137Z,1023.06
2019-02-12T11:17:51.137Z,1023.08
2019-02-12T11:18:51.113Z,1023.04
2019-02-12T11:19:51.109Z,1022.99
2019-02-12T11:20:51.104Z,1022.96
2019-02-12T11:21:51.088Z,1023.00
2019-02-12T11:22:51.105Z,1023.04
2019-02-12T11:23:51.062Z,1023.05
2019-02-12T11:24:51.049Z,1023.05
2019-02-12T11:25:51.047Z,1023.06
2019-02-12T11:26:51.029Z,1023.03
2019-02-12T11:27:51.018Z,1023.16
2019-02-12T11:28:51.025Z,1023.05
2019-02-12T11:29:51.003Z,1023.06
2019-02-12T11:30:50.985Z,1023.08
2019-02-12T11:31:50.978Z,1023.09
2019-02-12T11:32:50.968Z,1023.14
2019-02-12T11:33:50.968Z,1023.05
2019-02-12T11:34:50.947Z,1023.01
2019-02-12T11:35:50.934Z,1023.08
2019-02-12T11:36:50.934Z,1023.07
2019-02-12T11:37:50.919Z,1023.02
2019-02-12T11:38:50.917Z,1023.07
2019-02-12T11:39:50.895Z,1023.10
2019-02-12T11:40:50.885Z,1023.07
2019-02-12T11:41:50.870Z,1023.11
2019-02-12T11:42:50.866Z,1023.11
2019-02-12T11:43:50.866Z,1023.16
2019-02-12T11:44:50.841Z,1023.15
2019-02-12T11:45:50.832Z,1023.16
2019-02-12T11:46:50.828Z,1023.20
2019-02-12T11:47:50.812Z,1023.14
2019-02-12T11:48:50.829Z,1023.19
2019-02-12T11:49:50.796Z,1023.18
2019-02-12T11:50:50.774Z,1023.14
2019-02-12T11:51:50.766Z,1023.15
2019-02-12T11:52:50.758Z,1023.15
2019-02-12T11:53:50.745Z,1023.19
2019-02-12T11:54:50.753Z,1023.16
2019-02-12T11:55:50.727Z,1023.14
2019-02-12T11:56:50.709Z,1023.11
2019-02-12T11:57:50.703Z,1023.12
2019-02-12T11:58:50.691Z,1023.15
2019-02-12T11:59:52.354Z,1023.22
2019-02-12T12:00:50.672Z,1023.18
2019-02-12T12:01:50.668Z,1023.31
2019-02-12T12:02:50.654Z,1023.36
2019-02-12T12:03:50.641Z,1023.28
2019-02-12T12:04:50.649Z,1023.24
2019-02-12T12:05:50.619Z,1023.30